sensor_id;sensor_type;location;lat;lon;timestamp;P1;P2;P0
56069;PMS5003;41944;52.078;-0.058;2023-01-28T00:01:26;20;17;
56069;PMS5003;41944;52.078;-0.058;2023-01-28T00:03:54;17;15;
56069;PMS5003;41944;52.078;-0.058;2023-01-28T00:06:21;17;15;
56069;PMS5003;41944;52.078;-0.058;2023-01-28T00:08:47;22;19;
56069;PMS5003;41944;52.078;-0.058;2023-01-28T00:11:14;15;13;
56069;PMS5003;41944;52.078;-0.058;2023-01-28T00:13:41;24;20;
56069;PMS5003;41944;52.078;-0.058;2023-01-28T00:16:08;20;19;
56069;PMS5003;41944;52.078;-0.058;2023-01-28T00:18:35;21;18;
56069;PMS5003;41944;52.078;-0.058;2023-01-28T00:21:04;19;18;
56069;PMS5003;41944;52.078;-0.058;2023-01-28T00:23:36;15;14;
56069;PMS5003;41944;52.078;-0.058;2023-01-28T00:26:05;22;18;
56069;PMS5003;41944;52.078;-0.058;2023-01-28T00:28:34;18;16;
56069;PMS5003;41944;52.078;-0.058;2023-01-28T00:31:05;18;15;
56069;PMS5003;41944;52.078;-0.058;2023-01-28T00:33:33;22;19;
56069;PMS5003;41944;52.078;-0.058;2023-01-28T00:36:00;24;19;
56069;PMS5003;41944;52.078;-0.058;2023-01-28T00:38:29;17;13;
56069;PMS5003;41944;52.078;-0.058;2023-01-28T00:41:05;19;18;
56069;PMS5003;41944;52.078;-0.058;2023-01-28T00:43:33;23;20;
56069;PMS5003;41944;52.078;-0.058;2023-01-28T00:46:00;22;19;
56069;PMS5003;41944;52.078;-0.058;2023-01-28T00:48:27;22;17;
56069;PMS5003;41944;52.078;-0.058;2023-01-28T00:50:54;23;19;
56069;PMS5003;41944;52.078;-0.058;2023-01-28T00:53:21;24;17;
56069;PMS5003;41944;52.078;-0.058;2023-01-28T00:55:48;19;17;
56069;PMS5003;41944;52.078;-0.058;2023-01-28T00:58:15;25;21;
56069;PMS5003;41944;52.078;-0.058;2023-01-28T01:00:43;24;18;
56069;PMS5003;41944;52.078;-0.058;2023-01-28T01:03:10;26;22;
56069;PMS5003;41944;52.078;-0.058;2023-01-28T01:05:37;30;27;
56069;PMS5003;41944;52.078;-0.058;2023-01-28T01:08:04;21;19;
56069;PMS5003;41944;52.078;-0.058;2023-01-28T01:10:31;27;27;
56069;PMS5003;41944;52.078;-0.058;2023-01-28T01:12:58;29;26;
56069;PMS5003;41944;52.078;-0.058;2023-01-28T01:15:25;25;25;
56069;PMS5003;41944;52.078;-0.058;2023-01-28T01:17:52;34;28;
56069;PMS5003;41944;52.078;-0.058;2023-01-28T01:20:19;28;24;
56069;PMS5003;41944;52.078;-0.058;2023-01-28T01:22:48;30;25;
56069;PMS5003;41944;52.078;-0.058;2023-01-28T01:25:16;28;24;
56069;PMS5003;41944;52.078;-0.058;2023-01-28T01:27:44;31;27;
56069;PMS5003;41944;52.078;-0.058;2023-01-28T01:30:15;32;28;
56069;PMS5003;41944;52.078;-0.058;2023-01-28T01:32:43;25;25;
56069;PMS5003;41944;52.078;-0.058;2023-01-28T01:35:10;28;26;
56069;PMS5003;41944;52.078;-0.058;2023-01-28T01:37:37;30;27;
56069;PMS5003;41944;52.078;-0.058;2023-01-28T01:40:05;24;24;
56069;PMS5003;41944;52.078;-0.058;2023-01-28T01:42:33;27;21;
56069;PMS5003;41944;52.078;-0.058;2023-01-28T01:45:01;27;23;
56069;PMS5003;41944;52.078;-0.058;2023-01-28T01:47:32;23;22;
56069;PMS5003;41944;52.078;-0.058;2023-01-28T01:50:06;24;21;
56069;PMS5003;41944;52.078;-0.058;2023-01-28T01:52:41;21;18;
56069;PMS5003;41944;52.078;-0.058;2023-01-28T01:55:11;32;26;
56069;PMS5003;41944;52.078;-0.058;2023-01-28T01:57:44;20;20;
56069;PMS5003;41944;52.078;-0.058;2023-01-28T02:00:14;30;22;
56069;PMS5003;41944;52.078;-0.058;2023-01-28T02:02:43;25;21;
56069;PMS5003;41944;52.078;-0.058;2023-01-28T02:05:13;19;19;
56069;PMS5003;41944;52.078;-0.058;2023-01-28T02:07:44;21;18;
56069;PMS5003;41944;52.078;-0.058;2023-01-28T02:10:13;24;18;
56069;PMS5003;41944;52.078;-0.058;2023-01-28T02:12:41;27;22;
56069;PMS5003;41944;52.078;-0.058;2023-01-28T02:15:13;22;19;
56069;PMS5003;41944;52.078;-0.058;2023-01-28T02:17:43;20;18;
56069;PMS5003;41944;52.078;-0.058;2023-01-28T02:20:11;24;22;
56069;PMS5003;41944;52.078;-0.058;2023-01-28T02:22:47;23;19;
56069;PMS5003;41944;52.078;-0.058;2023-01-28T02:26:42;21;19;
56069;PMS5003;41944;52.078;-0.058;2023-01-28T02:29:22;23;22;
56069;PMS5003;41944;52.078;-0.058;2023-01-28T02:31:53;18;18;
56069;PMS5003;41944;52.078;-0.058;2023-01-28T02:34:28;18;17;
56069;PMS5003;41944;52.078;-0.058;2023-01-28T02:37:06;20;20;
56069;PMS5003;41944;52.078;-0.058;2023-01-28T02:39:41;20;18;
56069;PMS5003;41944;52.078;-0.058;2023-01-28T02:42:11;17;17;
56069;PMS5003;41944;52.078;-0.058;2023-01-28T02:44:42;20;18;
56069;PMS5003;41944;52.078;-0.058;2023-01-28T02:47:10;18;18;
56069;PMS5003;41944;52.078;-0.058;2023-01-28T02:49:40;21;19;
56069;PMS5003;41944;52.078;-0.058;2023-01-28T02:52:13;18;18;
56069;PMS5003;41944;52.078;-0.058;2023-01-28T02:54:53;19;18;
56069;PMS5003;41944;52.078;-0.058;2023-01-28T02:57:27;17;16;
56069;PMS5003;41944;52.078;-0.058;2023-01-28T03:00:02;22;19;
56069;PMS5003;41944;52.078;-0.058;2023-01-28T03:02:36;17;15;
56069;PMS5003;41944;52.078;-0.058;2023-01-28T03:05:12;17;14;
56069;PMS5003;41944;52.078;-0.058;2023-01-28T03:07:45;19;18;
56069;PMS5003;41944;52.078;-0.058;2023-01-28T03:10:15;18;15;
56069;PMS5003;41944;52.078;-0.058;2023-01-28T03:12:46;17;15;
56069;PMS5003;41944;52.078;-0.058;2023-01-28T03:15:18;21;19;
56069;PMS5003;41944;52.078;-0.058;2023-01-28T03:17:48;15;14;
56069;PMS5003;41944;52.078;-0.058;2023-01-28T03:20:21;14;14;
56069;PMS5003;41944;52.078;-0.058;2023-01-28T03:22:52;15;15;
56069;PMS5003;41944;52.078;-0.058;2023-01-28T03:25:22;16;15;
56069;PMS5003;41944;52.078;-0.058;2023-01-28T03:27:53;15;15;
56069;PMS5003;41944;52.078;-0.058;2023-01-28T03:30:28;13;13;
56069;PMS5003;41944;52.078;-0.058;2023-01-28T03:32:59;14;13;
56069;PMS5003;41944;52.078;-0.058;2023-01-28T03:35:30;13;12;
56069;PMS5003;41944;52.078;-0.058;2023-01-28T03:38:00;11;11;
56069;PMS5003;41944;52.078;-0.058;2023-01-28T03:40:29;14;14;
56069;PMS5003;41944;52.078;-0.058;2023-01-28T03:42:56;18;15;
56069;PMS5003;41944;52.078;-0.058;2023-01-28T03:45:23;13;13;
56069;PMS5003;41944;52.078;-0.058;2023-01-28T03:47:50;15;12;
56069;PMS5003;41944;52.078;-0.058;2023-01-28T03:50:17;14;13;
56069;PMS5003;41944;52.078;-0.058;2023-01-28T03:52:44;16;16;
56069;PMS5003;41944;52.078;-0.058;2023-01-28T03:55:12;17;15;
56069;PMS5003;41944;52.078;-0.058;2023-01-28T03:57:39;14;14;
56069;PMS5003;41944;52.078;-0.058;2023-01-28T04:00:07;14;13;
56069;PMS5003;41944;52.078;-0.058;2023-01-28T04:02:35;16;14;
56069;PMS5003;41944;52.078;-0.058;2023-01-28T04:05:02;16;14;
56069;PMS5003;41944;52.078;-0.058;2023-01-28T04:07:29;12;11;
56069;PMS5003;41944;52.078;-0.058;2023-01-28T04:09:56;14;14;
56069;PMS5003;41944;52.078;-0.058;2023-01-28T04:12:23;13;13;
56069;PMS5003;41944;52.078;-0.058;2023-01-28T04:14:50;12;12;
56069;PMS5003;41944;52.078;-0.058;2023-01-28T04:17:17;18;14;
56069;PMS5003;41944;52.078;-0.058;2023-01-28T04:19:44;16;13;
56069;PMS5003;41944;52.078;-0.058;2023-01-28T04:22:11;16;11;
56069;PMS5003;41944;52.078;-0.058;2023-01-28T04:24:38;12;12;
56069;PMS5003;41944;52.078;-0.058;2023-01-28T04:27:05;11;11;
56069;PMS5003;41944;52.078;-0.058;2023-01-28T04:29:32;14;12;
56069;PMS5003;41944;52.078;-0.058;2023-01-28T04:31:59;14;14;
56069;PMS5003;41944;52.078;-0.058;2023-01-28T04:34:26;16;13;
56069;PMS5003;41944;52.078;-0.058;2023-01-28T04:36:53;13;13;
56069;PMS5003;41944;52.078;-0.058;2023-01-28T04:39:20;15;15;
56069;PMS5003;41944;52.078;-0.058;2023-01-28T04:41:47;15;15;
56069;PMS5003;41944;52.078;-0.058;2023-01-28T04:44:14;19;15;
56069;PMS5003;41944;52.078;-0.058;2023-01-28T04:46:41;15;13;
56069;PMS5003;41944;52.078;-0.058;2023-01-28T04:49:08;15;14;
56069;PMS5003;41944;52.078;-0.058;2023-01-28T04:51:34;17;12;
56069;PMS5003;41944;52.078;-0.058;2023-01-28T04:54:01;16;14;
56069;PMS5003;41944;52.078;-0.058;2023-01-28T04:56:28;12;12;
56069;PMS5003;41944;52.078;-0.058;2023-01-28T04:58:55;12;12;
56069;PMS5003;41944;52.078;-0.058;2023-01-28T05:01:21;14;14;
56069;PMS5003;41944;52.078;-0.058;2023-01-28T05:03:48;15;14;
56069;PMS5003;41944;52.078;-0.058;2023-01-28T05:06:15;16;14;
56069;PMS5003;41944;52.078;-0.058;2023-01-28T05:08:42;16;13;
56069;PMS5003;41944;52.078;-0.058;2023-01-28T05:11:10;16;15;
56069;PMS5003;41944;52.078;-0.058;2023-01-28T05:13:37;15;14;
56069;PMS5003;41944;52.078;-0.058;2023-01-28T05:16:04;21;17;
56069;PMS5003;41944;52.078;-0.058;2023-01-28T05:18:31;19;16;
56069;PMS5003;41944;52.078;-0.058;2023-01-28T05:20:59;22;19;
56069;PMS5003;41944;52.078;-0.058;2023-01-28T05:23:26;22;22;
56069;PMS5003;41944;52.078;-0.058;2023-01-28T05:25:53;17;14;
56069;PMS5003;41944;52.078;-0.058;2023-01-28T05:28:20;17;16;
56069;PMS5003;41944;52.078;-0.058;2023-01-28T05:30:47;14;14;
56069;PMS5003;41944;52.078;-0.058;2023-01-28T05:33:14;15;14;
56069;PMS5003;41944;52.078;-0.058;2023-01-28T05:35:41;17;17;
56069;PMS5003;41944;52.078;-0.058;2023-01-28T05:38:08;19;16;
56069;PMS5003;41944;52.078;-0.058;2023-01-28T05:40:37;21;18;
56069;PMS5003;41944;52.078;-0.058;2023-01-28T05:43:03;20;19;
56069;PMS5003;41944;52.078;-0.058;2023-01-28T05:45:30;15;15;
56069;PMS5003;41944;52.078;-0.058;2023-01-28T05:47:57;15;15;
56069;PMS5003;41944;52.078;-0.058;2023-01-28T05:50:24;17;14;
56069;PMS5003;41944;52.078;-0.058;2023-01-28T05:52:51;16;13;
56069;PMS5003;41944;52.078;-0.058;2023-01-28T05:55:18;15;15;
56069;PMS5003;41944;52.078;-0.058;2023-01-28T05:57:45;15;14;
56069;PMS5003;41944;52.078;-0.058;2023-01-28T06:00:14;15;15;
56069;PMS5003;41944;52.078;-0.058;2023-01-28T06:02:42;19;15;
56069;PMS5003;41944;52.078;-0.058;2023-01-28T06:05:09;17;17;
56069;PMS5003;41944;52.078;-0.058;2023-01-28T06:07:36;17;15;
56069;PMS5003;41944;52.078;-0.058;2023-01-28T06:10:03;17;15;
56069;PMS5003;41944;52.078;-0.058;2023-01-28T06:12:30;18;16;
56069;PMS5003;41944;52.078;-0.058;2023-01-28T06:14:57;17;16;
56069;PMS5003;41944;52.078;-0.058;2023-01-28T06:17:25;20;19;
56069;PMS5003;41944;52.078;-0.058;2023-01-28T06:19:51;31;25;
56069;PMS5003;41944;52.078;-0.058;2023-01-28T06:22:19;30;28;
56069;PMS5003;41944;52.078;-0.058;2023-01-28T06:24:46;21;21;
56069;PMS5003;41944;52.078;-0.058;2023-01-28T06:27:13;17;17;
56069;PMS5003;41944;52.078;-0.058;2023-01-28T06:29:40;16;16;
56069;PMS5003;41944;52.078;-0.058;2023-01-28T06:32:07;22;20;
56069;PMS5003;41944;52.078;-0.058;2023-01-28T06:34:34;22;21;
56069;PMS5003;41944;52.078;-0.058;2023-01-28T06:37:01;19;17;
56069;PMS5003;41944;52.078;-0.058;2023-01-28T06:39:29;17;17;
56069;PMS5003;41944;52.078;-0.058;2023-01-28T06:41:56;20;18;
56069;PMS5003;41944;52.078;-0.058;2023-01-28T06:44:23;27;26;
56069;PMS5003;41944;52.078;-0.058;2023-01-28T06:46:50;21;21;
56069;PMS5003;41944;52.078;-0.058;2023-01-28T06:49:17;26;19;
56069;PMS5003;41944;52.078;-0.058;2023-01-28T06:51:44;20;18;
56069;PMS5003;41944;52.078;-0.058;2023-01-28T06:54:12;22;22;
56069;PMS5003;41944;52.078;-0.058;2023-01-28T06:56:38;19;18;
56069;PMS5003;41944;52.078;-0.058;2023-01-28T06:59:05;21;20;
56069;PMS5003;41944;52.078;-0.058;2023-01-28T07:01:33;24;21;
56069;PMS5003;41944;52.078;-0.058;2023-01-28T07:04:00;21;20;
56069;PMS5003;41944;52.078;-0.058;2023-01-28T07:06:26;20;20;
56069;PMS5003;41944;52.078;-0.058;2023-01-28T07:08:53;16;15;
56069;PMS5003;41944;52.078;-0.058;2023-01-28T07:11:20;22;17;
56069;PMS5003;41944;52.078;-0.058;2023-01-28T07:13:47;21;21;
56069;PMS5003;41944;52.078;-0.058;2023-01-28T07:16:14;17;16;
56069;PMS5003;41944;52.078;-0.058;2023-01-28T07:18:40;19;18;
56069;PMS5003;41944;52.078;-0.058;2023-01-28T07:21:07;18;17;
56069;PMS5003;41944;52.078;-0.058;2023-01-28T07:23:34;24;21;
56069;PMS5003;41944;52.078;-0.058;2023-01-28T07:26:02;22;20;
56069;PMS5003;41944;52.078;-0.058;2023-01-28T07:28:30;25;19;
56069;PMS5003;41944;52.078;-0.058;2023-01-28T07:30:57;27;25;
56069;PMS5003;41944;52.078;-0.058;2023-01-28T07:33:24;20;19;
56069;PMS5003;41944;52.078;-0.058;2023-01-28T07:35:51;21;20;
56069;PMS5003;41944;52.078;-0.058;2023-01-28T07:38:18;22;22;
56069;PMS5003;41944;52.078;-0.058;2023-01-28T07:40:45;21;19;
56069;PMS5003;41944;52.078;-0.058;2023-01-28T07:43:13;23;23;
56069;PMS5003;41944;52.078;-0.058;2023-01-28T07:45:40;20;17;
56069;PMS5003;41944;52.078;-0.058;2023-01-28T07:48:08;24;22;
56069;PMS5003;41944;52.078;-0.058;2023-01-28T07:50:37;25;20;
56069;PMS5003;41944;52.078;-0.058;2023-01-28T07:53:04;16;16;
56069;PMS5003;41944;52.078;-0.058;2023-01-28T07:55:33;23;21;
56069;PMS5003;41944;52.078;-0.058;2023-01-28T07:58:01;22;21;
56069;PMS5003;41944;52.078;-0.058;2023-01-28T08:00:30;30;26;
56069;PMS5003;41944;52.078;-0.058;2023-01-28T08:02:59;24;19;
56069;PMS5003;41944;52.078;-0.058;2023-01-28T08:05:28;23;21;
56069;PMS5003;41944;52.078;-0.058;2023-01-28T08:08:02;39;34;
56069;PMS5003;41944;52.078;-0.058;2023-01-28T08:10:29;22;21;
56069;PMS5003;41944;52.078;-0.058;2023-01-28T08:12:57;24;22;
56069;PMS5003;41944;52.078;-0.058;2023-01-28T08:15:25;22;19;
56069;PMS5003;41944;52.078;-0.058;2023-01-28T08:17:53;21;21;
56069;PMS5003;41944;52.078;-0.058;2023-01-28T08:20:21;22;20;
56069;PMS5003;41944;52.078;-0.058;2023-01-28T08:22:48;25;23;
56069;PMS5003;41944;52.078;-0.058;2023-01-28T08:25:16;22;20;
56069;PMS5003;41944;52.078;-0.058;2023-01-28T08:27:43;27;26;
56069;PMS5003;41944;52.078;-0.058;2023-01-28T08:30:11;35;28;
56069;PMS5003;41944;52.078;-0.058;2023-01-28T08:32:38;35;28;
56069;PMS5003;41944;52.078;-0.058;2023-01-28T08:35:05;35;33;
56069;PMS5003;41944;52.078;-0.058;2023-01-28T08:37:33;38;36;
56069;PMS5003;41944;52.078;-0.058;2023-01-28T08:40:00;29;27;
56069;PMS5003;41944;52.078;-0.058;2023-01-28T08:42:26;34;32;
56069;PMS5003;41944;52.078;-0.058;2023-01-28T08:44:53;27;26;
56069;PMS5003;41944;52.078;-0.058;2023-01-28T08:47:20;31;26;
56069;PMS5003;41944;52.078;-0.058;2023-01-28T08:49:47;25;22;
56069;PMS5003;41944;52.078;-0.058;2023-01-28T08:52:14;30;28;
56069;PMS5003;41944;52.078;-0.058;2023-01-28T08:54:42;40;34;
56069;PMS5003;41944;52.078;-0.058;2023-01-28T08:57:08;36;35;
56069;PMS5003;41944;52.078;-0.058;2023-01-28T08:59:36;31;30;
56069;PMS5003;41944;52.078;-0.058;2023-01-28T09:02:03;32;27;
56069;PMS5003;41944;52.078;-0.058;2023-01-28T09:04:30;37;36;
56069;PMS5003;41944;52.078;-0.058;2023-01-28T09:06:57;26;25;
56069;PMS5003;41944;52.078;-0.058;2023-01-28T09:09:29;38;32;
56069;PMS5003;41944;52.078;-0.058;2023-01-28T09:11:57;27;23;
56069;PMS5003;41944;52.078;-0.058;2023-01-28T09:14:24;24;20;
56069;PMS5003;41944;52.078;-0.058;2023-01-28T09:16:51;28;23;
56069;PMS5003;41944;52.078;-0.058;2023-01-28T09:19:18;29;25;
56069;PMS5003;41944;52.078;-0.058;2023-01-28T09:21:45;31;28;
56069;PMS5003;41944;52.078;-0.058;2023-01-28T09:24:12;27;24;
56069;PMS5003;41944;52.078;-0.058;2023-01-28T09:26:39;34;27;
56069;PMS5003;41944;52.078;-0.058;2023-01-28T09:29:11;31;29;
56069;PMS5003;41944;52.078;-0.058;2023-01-28T09:31:40;40;33;
56069;PMS5003;41944;52.078;-0.058;2023-01-28T09:34:08;28;25;
56069;PMS5003;41944;52.078;-0.058;2023-01-28T09:36:35;40;35;
56069;PMS5003;41944;52.078;-0.058;2023-01-28T09:39:02;32;29;
56069;PMS5003;41944;52.078;-0.058;2023-01-28T09:41:31;32;27;
56069;PMS5003;41944;52.078;-0.058;2023-01-28T09:44:17;28;26;
56069;PMS5003;41944;52.078;-0.058;2023-01-28T09:46:59;34;30;
56069;PMS5003;41944;52.078;-0.058;2023-01-28T09:49:30;36;32;
56069;PMS5003;41944;52.078;-0.058;2023-01-28T09:52:00;36;35;
56069;PMS5003;41944;52.078;-0.058;2023-01-28T09:54:29;42;38;
56069;PMS5003;41944;52.078;-0.058;2023-01-28T09:57:04;39;36;
56069;PMS5003;41944;52.078;-0.058;2023-01-28T09:59:37;35;32;
56069;PMS5003;41944;52.078;-0.058;2023-01-28T10:02:13;38;36;
56069;PMS5003;41944;52.078;-0.058;2023-01-28T10:04:57;39;32;
56069;PMS5003;41944;52.078;-0.058;2023-01-28T10:07:31;30;27;
56069;PMS5003;41944;52.078;-0.058;2023-01-28T10:10:06;32;30;
56069;PMS5003;41944;52.078;-0.058;2023-01-28T10:12:40;36;34;
56069;PMS5003;41944;52.078;-0.058;2023-01-28T10:15:20;41;37;
56069;PMS5003;41944;52.078;-0.058;2023-01-28T10:17:56;36;31;
56069;PMS5003;41944;52.078;-0.058;2023-01-28T10:20:29;33;32;
56069;PMS5003;41944;52.078;-0.058;2023-01-28T10:23:03;33;30;
56069;PMS5003;41944;52.078;-0.058;2023-01-28T10:25:33;33;33;
56069;PMS5003;41944;52.078;-0.058;2023-01-28T10:28:01;28;27;
56069;PMS5003;41944;52.078;-0.058;2023-01-28T10:30:39;34;34;
56069;PMS5003;41944;52.078;-0.058;2023-01-28T10:33:12;33;32;
56069;PMS5003;41944;52.078;-0.058;2023-01-28T10:35:44;29;28;
56069;PMS5003;41944;52.078;-0.058;2023-01-28T10:38:12;29;29;
56069;PMS5003;41944;52.078;-0.058;2023-01-28T10:40:41;28;28;
56069;PMS5003;41944;52.078;-0.058;2023-01-28T10:43:09;30;29;
56069;PMS5003;41944;52.078;-0.058;2023-01-28T10:45:36;30;29;
56069;PMS5003;41944;52.078;-0.058;2023-01-28T10:48:12;33;29;
56069;PMS5003;41944;52.078;-0.058;2023-01-28T10:50:48;31;30;
56069;PMS5003;41944;52.078;-0.058;2023-01-28T10:53:17;35;32;
56069;PMS5003;41944;52.078;-0.058;2023-01-28T10:55:48;40;36;
56069;PMS5003;41944;52.078;-0.058;2023-01-28T10:58:18;33;28;
56069;PMS5003;41944;52.078;-0.058;2023-01-28T11:00:51;40;35;
56069;PMS5003;41944;52.078;-0.058;2023-01-28T11:03:20;33;29;
56069;PMS5003;41944;52.078;-0.058;2023-01-28T11:05:49;36;36;
56069;PMS5003;41944;52.078;-0.058;2023-01-28T11:08:17;35;35;
56069;PMS5003;41944;52.078;-0.058;2023-01-28T11:10:46;38;33;
56069;PMS5003;41944;52.078;-0.058;2023-01-28T11:13:14;40;33;
56069;PMS5003;41944;52.078;-0.058;2023-01-28T11:15:45;36;33;
56069;PMS5003;41944;52.078;-0.058;2023-01-28T11:18:15;35;33;
56069;PMS5003;41944;52.078;-0.058;2023-01-28T11:20:48;36;32;
56069;PMS5003;41944;52.078;-0.058;2023-01-28T11:23:18;36;33;
56069;PMS5003;41944;52.078;-0.058;2023-01-28T11:25:58;32;28;
56069;PMS5003;41944;52.078;-0.058;2023-01-28T11:28:29;43;38;
56069;PMS5003;41944;52.078;-0.058;2023-01-28T11:30:57;33;33;
56069;PMS5003;41944;52.078;-0.058;2023-01-28T11:33:27;30;29;
56069;PMS5003;41944;52.078;-0.058;2023-01-28T11:36:04;39;35;
56069;PMS5003;41944;52.078;-0.058;2023-01-28T11:38:45;34;31;
56069;PMS5003;41944;52.078;-0.058;2023-01-28T11:41:14;42;37;
56069;PMS5003;41944;52.078;-0.058;2023-01-28T11:43:42;40;37;
56069;PMS5003;41944;52.078;-0.058;2023-01-28T11:46:16;40;36;
56069;PMS5003;41944;52.078;-0.058;2023-01-28T11:49:01;38;34;
56069;PMS5003;41944;52.078;-0.058;2023-01-28T11:51:35;36;31;
56069;PMS5003;41944;52.078;-0.058;2023-01-28T11:54:12;42;32;
56069;PMS5003;41944;52.078;-0.058;2023-01-28T11:56:53;33;32;
56069;PMS5003;41944;52.078;-0.058;2023-01-28T11:59:37;37;32;
56069;PMS5003;41944;52.078;-0.058;2023-01-28T12:02:20;36;30;
56069;PMS5003;41944;52.078;-0.058;2023-01-28T12:05:04;34;31;
56069;PMS5003;41944;52.078;-0.058;2023-01-28T12:07:43;35;34;
56069;PMS5003;41944;52.078;-0.058;2023-01-28T12:10:18;43;42;
56069;PMS5003;41944;52.078;-0.058;2023-01-28T12:12:53;28;23;
56069;PMS5003;41944;52.078;-0.058;2023-01-28T12:15:51;33;30;
56069;PMS5003;41944;52.078;-0.058;2023-01-28T12:18:54;32;30;
56069;PMS5003;41944;52.078;-0.058;2023-01-28T12:21:40;35;32;
56069;PMS5003;41944;52.078;-0.058;2023-01-28T12:24:18;39;34;
56069;PMS5003;41944;52.078;-0.058;2023-01-28T12:26:56;32;30;
56069;PMS5003;41944;52.078;-0.058;2023-01-28T12:29:31;24;23;
56069;PMS5003;41944;52.078;-0.058;2023-01-28T12:32:08;26;23;
56069;PMS5003;41944;52.078;-0.058;2023-01-28T12:35:25;30;26;
56069;PMS5003;41944;52.078;-0.058;2023-01-28T12:38:03;21;20;
56069;PMS5003;41944;52.078;-0.058;2023-01-28T12:40:53;29;25;
56069;PMS5003;41944;52.078;-0.058;2023-01-28T12:43:30;26;24;
56069;PMS5003;41944;52.078;-0.058;2023-01-28T12:46:09;25;24;
56069;PMS5003;41944;52.078;-0.058;2023-01-28T12:48:44;27;20;
56069;PMS5003;41944;52.078;-0.058;2023-01-28T12:51:18;28;23;
56069;PMS5003;41944;52.078;-0.058;2023-01-28T12:53:51;27;23;
56069;PMS5003;41944;52.078;-0.058;2023-01-28T12:56:22;29;27;
56069;PMS5003;41944;52.078;-0.058;2023-01-28T12:58:54;27;25;
56069;PMS5003;41944;52.078;-0.058;2023-01-28T13:01:26;23;22;
56069;PMS5003;41944;52.078;-0.058;2023-01-28T13:03:59;28;25;
56069;PMS5003;41944;52.078;-0.058;2023-01-28T13:06:32;30;26;
56069;PMS5003;41944;52.078;-0.058;2023-01-28T13:09:10;22;22;
56069;PMS5003;41944;52.078;-0.058;2023-01-28T13:11:41;23;23;
56069;PMS5003;41944;52.078;-0.058;2023-01-28T13:14:10;29;26;
56069;PMS5003;41944;52.078;-0.058;2023-01-28T13:16:39;28;24;
56069;PMS5003;41944;52.078;-0.058;2023-01-28T13:19:07;27;22;
56069;PMS5003;41944;52.078;-0.058;2023-01-28T13:21:47;22;21;
56069;PMS5003;41944;52.078;-0.058;2023-01-28T13:24:19;23;19;
56069;PMS5003;41944;52.078;-0.058;2023-01-28T13:26:47;21;18;
56069;PMS5003;41944;52.078;-0.058;2023-01-28T13:29:17;23;18;
56069;PMS5003;41944;52.078;-0.058;2023-01-28T13:31:47;25;22;
56069;PMS5003;41944;52.078;-0.058;2023-01-28T13:34:28;19;18;
56069;PMS5003;41944;52.078;-0.058;2023-01-28T13:37:00;26;23;
56069;PMS5003;41944;52.078;-0.058;2023-01-28T13:39:30;23;20;
56069;PMS5003;41944;52.078;-0.058;2023-01-28T13:42:09;21;21;
56069;PMS5003;41944;52.078;-0.058;2023-01-28T13:44:47;18;17;
56069;PMS5003;41944;52.078;-0.058;2023-01-28T13:47:19;21;18;
56069;PMS5003;41944;52.078;-0.058;2023-01-28T13:49:52;24;20;
56069;PMS5003;41944;52.078;-0.058;2023-01-28T13:52:25;24;20;
56069;PMS5003;41944;52.078;-0.058;2023-01-28T13:54:55;20;17;
56069;PMS5003;41944;52.078;-0.058;2023-01-28T13:58:21;23;20;
56069;PMS5003;41944;52.078;-0.058;2023-01-28T14:01:08;20;18;
56069;PMS5003;41944;52.078;-0.058;2023-01-28T14:03:54;20;18;
56069;PMS5003;41944;52.078;-0.058;2023-01-28T14:06:51;22;18;
56069;PMS5003;41944;52.078;-0.058;2023-01-28T14:09:39;17;15;
56069;PMS5003;41944;52.078;-0.058;2023-01-28T14:12:21;22;20;
56069;PMS5003;41944;52.078;-0.058;2023-01-28T14:15:08;21;19;
56069;PMS5003;41944;52.078;-0.058;2023-01-28T14:17:55;20;18;
56069;PMS5003;41944;52.078;-0.058;2023-01-28T14:20:25;26;25;
56069;PMS5003;41944;52.078;-0.058;2023-01-28T14:22:57;19;19;
56069;PMS5003;41944;52.078;-0.058;2023-01-28T14:25:28;20;19;
56069;PMS5003;41944;52.078;-0.058;2023-01-28T14:28:02;26;21;
56069;PMS5003;41944;52.078;-0.058;2023-01-28T14:30:35;21;19;
56069;PMS5003;41944;52.078;-0.058;2023-01-28T14:33:09;18;16;
56069;PMS5003;41944;52.078;-0.058;2023-01-28T14:35:39;25;21;
56069;PMS5003;41944;52.078;-0.058;2023-01-28T14:38:12;24;24;
56069;PMS5003;41944;52.078;-0.058;2023-01-28T14:40:42;24;23;
56069;PMS5003;41944;52.078;-0.058;2023-01-28T14:43:12;26;24;
56069;PMS5003;41944;52.078;-0.058;2023-01-28T14:45:49;21;17;
56069;PMS5003;41944;52.078;-0.058;2023-01-28T14:48:28;21;19;
56069;PMS5003;41944;52.078;-0.058;2023-01-28T14:51:07;19;19;
56069;PMS5003;41944;52.078;-0.058;2023-01-28T14:53:55;28;22;
56069;PMS5003;41944;52.078;-0.058;2023-01-28T14:56:38;23;22;
56069;PMS5003;41944;52.078;-0.058;2023-01-28T14:59:15;19;18;
56069;PMS5003;41944;52.078;-0.058;2023-01-28T15:01:46;25;20;
56069;PMS5003;41944;52.078;-0.058;2023-01-28T15:04:23;22;21;
56069;PMS5003;41944;52.078;-0.058;2023-01-28T15:06:52;19;18;
56069;PMS5003;41944;52.078;-0.058;2023-01-28T15:09:19;23;20;
56069;PMS5003;41944;52.078;-0.058;2023-01-28T15:11:49;24;20;
56069;PMS5003;41944;52.078;-0.058;2023-01-28T15:14:20;26;23;
56069;PMS5003;41944;52.078;-0.058;2023-01-28T15:16:52;23;22;
56069;PMS5003;41944;52.078;-0.058;2023-01-28T15:19:22;20;19;
56069;PMS5003;41944;52.078;-0.058;2023-01-28T15:21:53;27;22;
56069;PMS5003;41944;52.078;-0.058;2023-01-28T15:24:21;23;22;
56069;PMS5003;41944;52.078;-0.058;2023-01-28T15:26:49;22;21;
56069;PMS5003;41944;52.078;-0.058;2023-01-28T15:29:22;21;17;
56069;PMS5003;41944;52.078;-0.058;2023-01-28T15:31:50;26;20;
56069;PMS5003;41944;52.078;-0.058;2023-01-28T15:34:19;22;21;
56069;PMS5003;41944;52.078;-0.058;2023-01-28T15:36:46;19;19;
56069;PMS5003;41944;52.078;-0.058;2023-01-28T15:39:14;31;23;
56069;PMS5003;41944;52.078;-0.058;2023-01-28T15:41:43;25;25;
56069;PMS5003;41944;52.078;-0.058;2023-01-28T15:44:15;24;22;
56069;PMS5003;41944;52.078;-0.058;2023-01-28T15:46:43;25;22;
56069;PMS5003;41944;52.078;-0.058;2023-01-28T15:49:13;27;25;
56069;PMS5003;41944;52.078;-0.058;2023-01-28T15:51:47;27;25;
56069;PMS5003;41944;52.078;-0.058;2023-01-28T15:54:15;26;24;
56069;PMS5003;41944;52.078;-0.058;2023-01-28T15:56:44;24;23;
56069;PMS5003;41944;52.078;-0.058;2023-01-28T15:59:16;28;23;
56069;PMS5003;41944;52.078;-0.058;2023-01-28T16:01:47;28;26;
56069;PMS5003;41944;52.078;-0.058;2023-01-28T16:04:22;27;24;
56069;PMS5003;41944;52.078;-0.058;2023-01-28T16:06:51;31;29;
56069;PMS5003;41944;52.078;-0.058;2023-01-28T16:09:21;25;24;
56069;PMS5003;41944;52.078;-0.058;2023-01-28T16:11:50;26;23;
56069;PMS5003;41944;52.078;-0.058;2023-01-28T16:14:19;25;22;
56069;PMS5003;41944;52.078;-0.058;2023-01-28T16:16:49;28;26;
56069;PMS5003;41944;52.078;-0.058;2023-01-28T16:19:22;27;26;
56069;PMS5003;41944;52.078;-0.058;2023-01-28T16:21:56;27;24;
56069;PMS5003;41944;52.078;-0.058;2023-01-28T16:24:25;27;20;
56069;PMS5003;41944;52.078;-0.058;2023-01-28T16:26:55;22;19;